Sant Just Desvern, Spain
Current Conditions -  °F | °C
As of 2:30 AM on Sunday 26 Oct 2014 (Local Time) from LEBL Reporting Station
Few Clouds Few Clouds  
Wind Chill: 18°   Ceiling: Unl
Heat Index: 18°   Visibility: 6mi
Dew Point: 16°   Wind: 7mph
Humidity: 88%   Direction: 330°NNW
Pressure: 30.15"   Gusts: NA
Location:  41.39°N, 2.08°E
Report Text: LEBL 260030Z 33006KT 9000 FEW010 18/16 Q1021 NOSIG
Loading
Personal Weather Stations






























Interactive Weather Map
Tropical Storm Tracking
New forecast layout! Learn more

10-Day Weather Forecast

Advertisements
Track Severe Weather on mobile